createdAt,value
2023-04-07T00:00:58.779Z,0.41
2023-04-07T00:02:01.085Z,0.40
2023-04-07T00:03:07.447Z,0.41
2023-04-07T00:04:12.411Z,0.41
2023-04-07T00:05:14.737Z,0.41
2023-04-07T00:06:18.031Z,0.40
2023-04-07T00:07:20.227Z,0.40
2023-04-07T00:08:23.559Z,0.40
2023-04-07T00:09:26.003Z,0.40
2023-04-07T00:10:29.319Z,0.41
2023-04-07T00:11:31.676Z,0.41
2023-04-07T00:12:35.079Z,0.42
2023-04-07T00:13:37.222Z,0.41
2023-04-07T00:14:40.506Z,0.42
2023-04-07T00:15:42.778Z,0.42
2023-04-07T00:16:45.976Z,0.42
2023-04-07T00:17:48.275Z,0.41
2023-04-07T00:18:51.468Z,0.42
2023-04-07T00:19:54.980Z,0.43
2023-04-07T00:21:04.486Z,0.43
2023-04-07T00:22:06.989Z,0.43
2023-04-07T00:23:10.158Z,0.41
2023-04-07T00:24:13.013Z,0.43
2023-04-07T00:25:19.497Z,0.43
2023-04-07T00:26:21.790Z,0.45
2023-04-07T00:27:25.563Z,0.44
2023-04-07T00:28:27.742Z,0.44
2023-04-07T00:29:31.134Z,0.45
2023-04-07T00:30:33.366Z,0.43
2023-04-07T00:31:36.481Z,0.42
2023-04-07T00:32:38.745Z,0.41
2023-04-07T00:33:41.826Z,0.42
2023-04-07T00:34:43.870Z,0.42
2023-04-07T00:35:48.630Z,0.42
2023-04-07T00:36:52.295Z,0.42
2023-04-07T00:37:55.886Z,0.41
2023-04-07T00:38:57.963Z,0.42
2023-04-07T00:40:01.030Z,0.42
2023-04-07T00:41:03.161Z,0.42
2023-04-07T00:42:06.734Z,0.43
2023-04-07T00:43:08.866Z,0.43
2023-04-07T00:44:12.384Z,0.43
2023-04-07T00:45:14.305Z,0.44
2023-04-07T00:46:17.441Z,0.44
2023-04-07T00:47:20.418Z,0.45
2023-04-07T00:48:23.615Z,0.46
2023-04-07T00:49:25.994Z,0.44
2023-04-07T00:50:32.537Z,0.45
2023-04-07T00:51:36.774Z,0.43
2023-04-07T00:52:41.086Z,0.42
2023-04-07T00:53:43.282Z,0.42
2023-04-07T00:54:47.444Z,0.42
2023-04-07T00:55:49.752Z,0.42
2023-04-07T00:56:55.905Z,0.43
2023-04-07T00:57:58.478Z,0.42
2023-04-07T00:59:40.527Z,0.42
2023-04-07T01:00:46.338Z,0.40
2023-04-07T01:01:56.437Z,0.38
2023-04-07T01:03:02.040Z,0.36
2023-04-07T01:04:08.859Z,0.37
2023-04-07T01:05:15.870Z,0.38
2023-04-07T01:06:27.275Z,0.37
2023-04-07T01:07:37.909Z,0.38
2023-04-07T01:08:50.553Z,0.37
2023-04-07T01:09:56.566Z,0.38
2023-04-07T01:11:33.606Z,0.37
2023-04-07T01:12:46.215Z,0.36
2023-04-07T01:13:51.018Z,0.37
2023-04-07T01:15:14.285Z,0.35
2023-04-07T01:16:32.791Z,0.38
2023-04-07T01:17:36.509Z,0.37
2023-04-07T01:18:40.414Z,0.38
2023-04-07T01:19:48.049Z,0.38
2023-04-07T01:21:02.093Z,0.39
2023-04-07T01:22:09.973Z,0.38
2023-04-07T01:23:27.034Z,0.38
2023-04-07T01:24:46.852Z,0.37
2023-04-07T01:26:04.213Z,0.38
2023-04-07T01:27:20.265Z,0.38
2023-04-07T01:28:41.827Z,0.38
2023-04-07T01:29:48.255Z,0.36
2023-04-07T01:30:54.965Z,0.36
2023-04-07T01:31:59.018Z,0.37
2023-04-07T01:33:03.313Z,0.38
2023-04-07T01:34:06.723Z,0.39
2023-04-07T01:35:12.317Z,0.39
2023-04-07T01:36:25.613Z,0.38
2023-04-07T01:37:30.244Z,0.38
2023-04-07T01:38:33.834Z,0.38
2023-04-07T01:39:40.568Z,0.38
2023-04-07T01:40:43.772Z,0.37
2023-04-07T01:41:47.310Z,0.38
2023-04-07T01:42:50.559Z,0.38
2023-04-07T01:43:54.492Z,0.40
2023-04-07T01:44:58.572Z,0.40
2023-04-07T01:46:02.853Z,0.41
2023-04-07T01:47:05.857Z,0.42
2023-04-07T01:48:09.739Z,0.44
2023-04-07T01:49:12.875Z,0.44
2023-04-07T01:50:22.029Z,0.44
2023-04-07T01:51:29.112Z,0.43
2023-04-07T01:52:32.922Z,0.44
2023-04-07T01:53:37.855Z,0.44
2023-04-07T01:54:41.234Z,0.43
2023-04-07T01:55:43.501Z,0.42
2023-04-07T01:56:47.569Z,0.44
2023-04-07T01:57:49.746Z,0.43
2023-04-07T01:58:55.521Z,0.43
2023-04-07T02:00:00.660Z,0.43
2023-04-07T02:01:06.220Z,0.43
2023-04-07T02:02:08.760Z,0.43
2023-04-07T02:03:21.103Z,0.42
2023-04-07T02:04:29.936Z,0.42
2023-04-07T02:05:34.058Z,0.42
2023-04-07T02:06:41.457Z,0.42
2023-04-07T02:07:49.921Z,0.42
2023-04-07T02:08:56.317Z,0.41
2023-04-07T02:10:01.797Z,0.41
2023-04-07T02:11:04.107Z,0.41
2023-04-07T02:12:13.459Z,0.42
2023-04-07T02:13:22.474Z,0.42
2023-04-07T02:14:27.013Z,0.42
2023-04-07T02:15:41.034Z,0.43
2023-04-07T02:16:45.685Z,0.45
2023-04-07T02:17:51.260Z,0.43
2023-04-07T02:19:00.766Z,0.43
2023-04-07T02:20:04.739Z,0.43
2023-04-07T02:21:08.814Z,0.43
2023-04-07T02:22:13.057Z,0.43
2023-04-07T02:23:16.448Z,0.43
2023-04-07T02:24:21.123Z,0.43
2023-04-07T02:25:25.084Z,0.43
2023-04-07T02:26:30.536Z,0.43
2023-04-07T02:27:32.559Z,0.43
2023-04-07T02:28:35.577Z,0.44
2023-04-07T02:29:37.549Z,0.44
2023-04-07T02:30:41.926Z,0.46
2023-04-07T02:31:44.026Z,0.43
2023-04-07T02:32:47.069Z,0.44
2023-04-07T02:33:49.680Z,0.44
2023-04-07T02:34:52.696Z,0.44
2023-04-07T02:35:54.636Z,0.44
2023-04-07T02:36:57.666Z,0.42
2023-04-07T02:38:00.468Z,0.43
2023-04-07T02:39:03.825Z,0.43
2023-04-07T02:40:07.182Z,0.44
2023-04-07T02:41:10.693Z,0.45
2023-04-07T02:42:12.863Z,0.44
2023-04-07T02:43:17.634Z,0.44
2023-04-07T02:44:20.110Z,0.44
2023-04-07T02:45:23.264Z,0.43
2023-04-07T02:46:26.934Z,0.43
2023-04-07T02:47:30.352Z,0.43
2023-04-07T02:48:38.548Z,0.40
2023-04-07T02:49:41.750Z,0.40
2023-04-07T02:50:44.077Z,0.41
2023-04-07T02:51:48.004Z,0.41
2023-04-07T02:52:50.088Z,0.42
2023-04-07T02:53:53.441Z,0.41
2023-04-07T02:54:55.984Z,0.41
2023-04-07T02:56:02.668Z,0.42
2023-04-07T02:57:04.797Z,0.41
2023-04-07T02:58:07.689Z,0.42
2023-04-07T02:59:14.266Z,0.40
2023-04-07T03:00:20.520Z,0.41
2023-04-07T03:01:36.329Z,0.39
2023-04-07T03:02:39.610Z,0.38
2023-04-07T03:03:42.443Z,0.38
2023-04-07T03:04:54.963Z,0.38
2023-04-07T03:06:01.498Z,0.38
2023-04-07T03:07:05.776Z,0.38
2023-04-07T03:08:08.916Z,0.39
2023-04-07T03:09:13.494Z,0.41
2023-04-07T03:10:15.868Z,0.42
2023-04-07T03:11:18.892Z,0.42
2023-04-07T03:12:21.193Z,0.44
2023-04-07T03:13:24.429Z,0.45
2023-04-07T03:14:26.488Z,0.46
2023-04-07T03:15:29.339Z,0.47
2023-04-07T03:16:31.816Z,0.47
2023-04-07T03:17:41.581Z,0.49
2023-04-07T03:18:49.393Z,0.49
2023-04-07T03:19:53.137Z,0.49
2023-04-07T03:20:56.204Z,0.48
2023-04-07T03:21:59.635Z,0.49
2023-04-07T03:23:03.118Z,0.48
2023-04-07T03:24:08.438Z,0.48
2023-04-07T03:25:11.202Z,0.48
2023-04-07T03:26:14.964Z,0.48
2023-04-07T03:27:18.604Z,0.49
2023-04-07T03:28:23.306Z,0.50
2023-04-07T03:29:25.724Z,0.50
2023-04-07T03:30:29.269Z,0.50
2023-04-07T03:31:31.493Z,0.49
2023-04-07T03:32:35.054Z,0.49
2023-04-07T03:33:38.625Z,0.50
2023-04-07T03:34:41.572Z,0.50
2023-04-07T03:35:43.816Z,0.50
2023-04-07T03:36:47.781Z,0.50
2023-04-07T03:37:51.187Z,0.49
2023-04-07T03:38:55.369Z,0.50
2023-04-07T03:39:57.475Z,0.50
2023-04-07T03:41:03.457Z,0.49
2023-04-07T03:42:06.188Z,0.47
2023-04-07T03:43:14.349Z,0.47
2023-04-07T03:44:19.812Z,0.44
2023-04-07T03:45:23.134Z,0.43
2023-04-07T03:46:28.586Z,0.42
2023-04-07T03:47:32.080Z,0.41
2023-04-07T03:48:38.672Z,0.41
2023-04-07T03:49:46.805Z,0.41
2023-04-07T03:50:49.005Z,0.40
2023-04-07T03:51:57.618Z,0.42
2023-04-07T03:52:59.976Z,0.42
2023-04-07T03:54:06.854Z,0.43
2023-04-07T03:55:15.602Z,0.43
2023-04-07T03:56:18.136Z,0.43
2023-04-07T03:57:24.973Z,0.44
2023-04-07T03:58:30.451Z,0.44
2023-04-07T03:59:44.390Z,0.44
2023-04-07T04:00:46.560Z,0.43
2023-04-07T04:01:50.020Z,0.42
2023-04-07T04:02:52.558Z,0.43
2023-04-07T04:03:58.392Z,0.43
2023-04-07T04:05:06.541Z,0.43
2023-04-07T04:06:09.689Z,0.43
2023-04-07T04:07:11.850Z,0.42
2023-04-07T04:08:25.321Z,0.41
2023-04-07T04:09:28.099Z,0.40
2023-04-07T04:10:31.417Z,0.41
2023-04-07T04:11:54.349Z,0.39
2023-04-07T04:13:00.702Z,0.40
2023-04-07T04:14:02.840Z,0.40
2023-04-07T04:15:06.589Z,0.41
2023-04-07T04:16:09.690Z,0.41
2023-04-07T04:17:14.452Z,0.43
2023-04-07T04:18:21.044Z,0.44
2023-04-07T04:19:28.354Z,0.46
2023-04-07T04:20:32.583Z,0.47
2023-04-07T04:21:37.182Z,0.48
2023-04-07T04:22:39.190Z,0.50
2023-04-07T04:23:43.020Z,0.49
2023-04-07T04:24:45.281Z,0.49
2023-04-07T04:25:48.497Z,0.49
2023-04-07T04:26:50.569Z,0.49
2023-04-07T04:27:53.780Z,0.49
2023-04-07T04:28:58.346Z,0.49
2023-04-07T04:30:05.164Z,0.51
2023-04-07T04:31:30.241Z,0.49
2023-04-07T04:32:32.981Z,0.50
2023-04-07T04:33:36.320Z,0.49
2023-04-07T04:34:42.202Z,0.50
2023-04-07T04:35:53.845Z,0.49
2023-04-07T04:36:56.930Z,0.49
2023-04-07T04:38:00.536Z,0.50
2023-04-07T04:39:07.640Z,0.50
2023-04-07T04:40:12.988Z,0.50
2023-04-07T04:41:16.687Z,0.49
2023-04-07T04:42:22.981Z,0.49
2023-04-07T04:43:26.593Z,0.50
2023-04-07T04:44:52.588Z,0.47
2023-04-07T04:45:57.086Z,0.48
2023-04-07T04:47:03.101Z,0.47
2023-04-07T04:48:06.969Z,0.48
2023-04-07T04:49:10.085Z,0.49
2023-04-07T04:50:13.551Z,0.48
2023-04-07T04:51:19.535Z,0.48
2023-04-07T04:52:27.258Z,0.47
2023-04-07T04:53:31.698Z,0.48
2023-04-07T04:54:36.269Z,0.50
2023-04-07T04:55:40.817Z,0.51
2023-04-07T04:56:43.407Z,0.55
2023-04-07T04:57:47.316Z,0.58
2023-04-07T04:58:54.757Z,0.60
2023-04-07T05:00:11.205Z,0.62
2023-04-07T05:01:15.646Z,0.62
2023-04-07T05:02:26.653Z,0.63
2023-04-07T05:03:29.514Z,0.62
2023-04-07T05:04:36.871Z,0.63
2023-04-07T05:06:00.177Z,0.60
2023-04-07T05:07:03.399Z,0.59
2023-04-07T05:08:07.395Z,0.58
2023-04-07T05:09:12.895Z,0.58
2023-04-07T05:10:19.961Z,0.57
2023-04-07T05:11:25.901Z,0.57
2023-04-07T05:12:32.236Z,0.55
2023-04-07T05:13:36.877Z,0.55
2023-04-07T05:14:41.080Z,0.55
2023-04-07T05:15:44.634Z,0.53
2023-04-07T05:16:49.680Z,0.53
2023-04-07T05:17:56.294Z,0.54
2023-04-07T05:19:02.797Z,0.55
2023-04-07T05:20:09.181Z,0.54
2023-04-07T05:21:15.815Z,0.55
2023-04-07T05:22:23.975Z,0.56
2023-04-07T05:23:28.338Z,0.59
2023-04-07T05:24:30.458Z,0.62
2023-04-07T05:25:45.659Z,0.65
2023-04-07T05:26:47.957Z,0.67
2023-04-07T05:27:51.525Z,0.69
2023-04-07T05:28:54.022Z,0.72
2023-04-07T05:30:01.277Z,0.75
2023-04-07T05:31:08.060Z,0.80
2023-04-07T05:32:12.060Z,0.84
2023-04-07T05:33:14.320Z,0.86
2023-04-07T05:34:35.614Z,0.83
2023-04-07T05:35:38.560Z,0.83
2023-04-07T05:36:44.079Z,0.82
2023-04-07T05:37:46.269Z,0.82
2023-04-07T05:38:49.822Z,0.82
2023-04-07T05:39:54.524Z,0.84
2023-04-07T05:40:57.611Z,0.84
2023-04-07T05:42:04.261Z,0.85
2023-04-07T05:43:08.866Z,0.85
2023-04-07T05:44:11.080Z,0.86
2023-04-07T05:45:17.005Z,0.85
2023-04-07T05:46:22.557Z,0.85
2023-04-07T05:47:32.592Z,0.86
2023-04-07T05:48:35.865Z,0.85
2023-04-07T05:49:46.170Z,0.85
2023-04-07T05:50:50.408Z,0.84
2023-04-07T05:51:55.320Z,0.83
2023-04-07T05:52:58.860Z,0.83
2023-04-07T05:54:03.517Z,0.82
2023-04-07T05:55:08.590Z,0.81
2023-04-07T05:56:10.735Z,0.81
2023-04-07T05:57:34.608Z,0.82
2023-04-07T05:58:38.606Z,0.82
2023-04-07T05:59:41.830Z,0.82
2023-04-07T06:00:44.236Z,0.84
2023-04-07T06:01:53.171Z,0.83
2023-04-07T06:02:59.505Z,0.86
2023-04-07T06:04:03.657Z,0.90
2023-04-07T06:05:06.522Z,0.93
2023-04-07T06:06:09.627Z,0.93
2023-04-07T06:07:14.404Z,0.95
2023-04-07T06:08:19.245Z,0.96
2023-04-07T06:09:21.678Z,0.97
2023-04-07T06:10:24.701Z,0.97
2023-04-07T06:11:27.755Z,1.01
2023-04-07T06:12:31.130Z,1.03
2023-04-07T06:13:33.233Z,1.05
2023-04-07T06:14:36.451Z,1.06
2023-04-07T06:15:38.861Z,1.07
2023-04-07T06:16:41.827Z,1.08
2023-04-07T06:17:45.825Z,1.12
2023-04-07T06:18:47.985Z,1.16
2023-04-07T06:19:51.242Z,1.19
2023-04-07T06:20:53.345Z,1.21
2023-04-07T06:21:56.472Z,1.22
2023-04-07T06:22:59.798Z,1.25
2023-04-07T06:24:03.102Z,1.29
2023-04-07T06:25:06.996Z,1.31
2023-04-07T06:26:12.274Z,1.33
2023-04-07T06:27:14.245Z,1.34
2023-04-07T06:28:18.570Z,1.36
2023-04-07T06:29:20.697Z,1.37
2023-04-07T06:30:24.001Z,1.36
2023-04-07T06:31:27.276Z,1.36
2023-04-07T06:32:30.479Z,1.35
2023-04-07T06:33:32.678Z,1.34
2023-04-07T06:34:36.329Z,1.35
2023-04-07T06:35:40.008Z,1.35
2023-04-07T06:36:43.592Z,1.35
2023-04-07T06:37:45.628Z,1.39
2023-04-07T06:38:50.006Z,1.40
2023-04-07T06:39:51.983Z,1.40
2023-04-07T06:40:56.432Z,1.42
2023-04-07T06:41:58.652Z,1.44
2023-04-07T06:43:02.216Z,1.47
2023-04-07T06:44:14.762Z,1.46
2023-04-07T06:45:18.220Z,1.45
2023-04-07T06:46:20.557Z,1.45
2023-04-07T06:47:24.205Z,1.46
2023-04-07T06:48:26.454Z,1.44
2023-04-07T06:49:29.337Z,1.42
2023-04-07T06:50:33.567Z,1.37
2023-04-07T06:51:36.922Z,1.35
2023-04-07T06:52:39.241Z,1.31
2023-04-07T06:53:44.687Z,1.28
2023-04-07T06:54:48.964Z,1.25
2023-04-07T06:55:50.982Z,1.24
2023-04-07T06:56:54.644Z,1.22
2023-04-07T06:58:00.004Z,1.19
2023-04-07T06:59:03.420Z,1.17
2023-04-07T07:00:08.060Z,1.17
2023-04-07T07:01:11.349Z,1.18
2023-04-07T07:02:13.589Z,1.18
2023-04-07T07:03:17.395Z,1.19
2023-04-07T07:04:22.293Z,1.20
2023-04-07T07:05:26.003Z,1.20
2023-04-07T07:06:32.937Z,1.23
2023-04-07T07:07:37.313Z,1.27
2023-04-07T07:08:44.036Z,1.28
2023-04-07T07:09:46.622Z,1.31
2023-04-07T07:10:51.932Z,1.34
2023-04-07T07:11:54.358Z,1.37
2023-04-07T07:12:58.110Z,1.39
2023-04-07T07:14:01.231Z,1.42
2023-04-07T07:15:05.055Z,1.41
2023-04-07T07:16:09.943Z,1.44
2023-04-07T07:17:12.081Z,1.47
2023-04-07T07:18:15.458Z,1.50
2023-04-07T07:19:18.692Z,1.52
2023-04-07T07:20:23.674Z,1.52
2023-04-07T07:21:26.847Z,1.52
2023-04-07T07:22:30.437Z,1.52
2023-04-07T07:23:34.044Z,1.51
2023-04-07T07:24:37.250Z,1.51
2023-04-07T07:25:40.922Z,1.51
2023-04-07T07:26:46.061Z,1.51
2023-04-07T07:28:07.360Z,1.52
2023-04-07T07:29:09.328Z,1.55
2023-04-07T07:30:12.981Z,1.54
2023-04-07T07:31:17.881Z,1.52
2023-04-07T07:32:21.458Z,1.51
2023-04-07T07:33:23.858Z,1.48
2023-04-07T07:34:27.108Z,1.45
2023-04-07T07:35:29.820Z,1.43
2023-04-07T07:36:35.804Z,1.43
2023-04-07T07:37:37.942Z,1.44
2023-04-07T07:38:41.811Z,1.42
2023-04-07T07:39:44.019Z,1.42
2023-04-07T07:40:47.614Z,1.40
2023-04-07T07:41:51.433Z,1.38
2023-04-07T07:42:55.071Z,1.39
2023-04-07T07:43:58.221Z,1.39
2023-04-07T07:45:07.838Z,1.40
2023-04-07T07:46:09.834Z,1.41
2023-04-07T07:47:13.702Z,1.46
2023-04-07T07:48:17.533Z,1.52
2023-04-07T07:49:19.652Z,1.59
2023-04-07T07:50:22.981Z,1.68
2023-04-07T07:51:25.335Z,1.77
2023-04-07T07:52:30.605Z,1.83
2023-04-07T07:53:33.722Z,1.91
2023-04-07T07:54:36.880Z,1.94
2023-04-07T07:55:39.188Z,1.99
2023-04-07T07:56:42.200Z,2.03
2023-04-07T07:57:47.733Z,2.06
2023-04-07T07:58:50.917Z,2.05
2023-04-07T07:59:54.289Z,2.07
2023-04-07T08:00:57.290Z,2.08
2023-04-07T08:01:59.456Z,2.11
2023-04-07T08:03:02.987Z,2.12
2023-04-07T08:04:06.832Z,2.13
2023-04-07T08:05:10.562Z,2.08
2023-04-07T08:06:13.560Z,2.09
2023-04-07T08:07:17.102Z,2.09
2023-04-07T08:08:20.183Z,2.11
2023-04-07T08:09:23.311Z,2.13
2023-04-07T08:10:25.702Z,2.17
2023-04-07T08:11:28.823Z,2.19
2023-04-07T08:12:31.082Z,2.22
2023-04-07T08:13:35.696Z,2.21
2023-04-07T08:14:37.781Z,2.23
2023-04-07T08:15:41.197Z,2.25
2023-04-07T08:16:43.618Z,2.27
2023-04-07T08:17:47.032Z,2.30
2023-04-07T08:18:49.876Z,2.30
2023-04-07T08:19:53.566Z,2.32
2023-04-07T08:20:57.912Z,2.37
2023-04-07T08:22:01.124Z,2.42
2023-04-07T08:23:05.380Z,2.44
2023-04-07T08:24:10.781Z,2.44
2023-04-07T08:25:13.999Z,2.44
2023-04-07T08:26:19.280Z,2.43
2023-04-07T08:27:34.653Z,2.42
2023-04-07T08:28:39.496Z,2.43
2023-04-07T08:29:43.786Z,2.45
2023-04-07T08:30:47.097Z,2.48
2023-04-07T08:31:49.328Z,2.50
2023-04-07T08:32:52.973Z,2.50
2023-04-07T08:33:58.831Z,2.45
2023-04-07T08:35:01.965Z,2.40
2023-04-07T08:36:04.784Z,2.40
2023-04-07T08:37:09.567Z,2.39
2023-04-07T08:38:11.704Z,2.44
2023-04-07T08:39:18.023Z,2.47
2023-04-07T08:40:20.267Z,2.51
2023-04-07T08:41:28.000Z,2.55
2023-04-07T08:42:35.250Z,2.57
2023-04-07T08:43:40.213Z,2.56
2023-04-07T08:44:42.768Z,2.56
2023-04-07T08:45:46.904Z,2.56
2023-04-07T08:46:49.403Z,2.55
2023-04-07T08:47:57.052Z,2.53
2023-04-07T08:49:02.351Z,2.51
2023-04-07T08:50:07.197Z,2.51
2023-04-07T08:51:10.833Z,2.52
2023-04-07T08:52:16.065Z,2.54
2023-04-07T08:53:25.665Z,2.57
2023-04-07T08:54:28.782Z,2.56
2023-04-07T08:55:32.037Z,2.58
2023-04-07T08:56:34.891Z,2.58
2023-04-07T08:57:38.614Z,2.60
2023-04-07T08:58:43.392Z,2.59
2023-04-07T08:59:48.996Z,2.60
2023-04-07T09:00:52.995Z,2.62
2023-04-07T09:01:57.844Z,2.64
2023-04-07T09:03:03.717Z,2.66
2023-04-07T09:04:07.273Z,2.65
2023-04-07T09:05:14.684Z,2.65
2023-04-07T09:06:21.224Z,2.65
2023-04-07T09:07:23.828Z,2.61
2023-04-07T09:08:29.955Z,2.58
2023-04-07T09:09:34.352Z,2.57
2023-04-07T09:10:37.619Z,2.58
2023-04-07T09:11:43.694Z,2.59
2023-04-07T09:12:45.833Z,2.61
2023-04-07T09:13:50.639Z,2.57
2023-04-07T09:14:54.165Z,2.55
2023-04-07T09:15:57.157Z,2.51
2023-04-07T09:17:00.961Z,2.49
2023-04-07T09:18:09.710Z,2.46
2023-04-07T09:19:11.747Z,2.40
2023-04-07T09:20:14.728Z,2.39
2023-04-07T09:21:16.989Z,2.35
2023-04-07T09:22:35.744Z,2.35
2023-04-07T09:23:43.007Z,2.36
2023-04-07T09:24:47.420Z,2.40
2023-04-07T09:25:50.248Z,2.46
2023-04-07T09:26:52.452Z,2.48
2023-04-07T09:27:57.811Z,2.50
2023-04-07T09:29:04.350Z,2.50
2023-04-07T09:30:14.853Z,2.50
2023-04-07T09:31:17.411Z,2.49
2023-04-07T09:32:36.934Z,2.52
2023-04-07T09:33:39.349Z,2.54
2023-04-07T09:34:43.605Z,2.58
2023-04-07T09:35:53.273Z,2.63
2023-04-07T09:36:56.944Z,2.69
2023-04-07T09:38:06.171Z,2.72
2023-04-07T09:39:09.892Z,2.73
2023-04-07T09:40:13.220Z,2.74
2023-04-07T09:41:18.344Z,2.77
2023-04-07T09:42:20.678Z,2.78
2023-04-07T09:43:24.023Z,2.79
2023-04-07T09:44:29.068Z,2.73
2023-04-07T09:45:35.758Z,2.71
2023-04-07T09:46:49.161Z,2.68
2023-04-07T09:48:06.639Z,2.64
2023-04-07T09:49:09.894Z,2.61
2023-04-07T09:50:12.727Z,2.60
2023-04-07T09:51:17.151Z,2.59
2023-04-07T09:52:26.469Z,2.56
2023-04-07T09:53:43.109Z,2.53
2023-04-07T09:54:46.963Z,2.50
2023-04-07T09:55:57.093Z,2.50
2023-04-07T09:56:59.689Z,2.51
2023-04-07T09:58:12.186Z,2.52
2023-04-07T09:59:15.534Z,2.51
2023-04-07T10:00:20.295Z,2.50
2023-04-07T10:01:23.749Z,2.47
2023-04-07T10:02:27.646Z,2.45
2023-04-07T10:03:56.562Z,2.47
2023-04-07T10:05:00.890Z,2.49
2023-04-07T10:06:05.021Z,2.50
2023-04-07T10:07:08.463Z,2.53
2023-04-07T10:09:39.968Z,2.56
2023-04-07T10:10:42.969Z,2.60
2023-04-07T10:11:46.604Z,2.62
2023-04-07T10:12:51.487Z,2.66
2023-04-07T10:13:56.584Z,2.66
2023-04-07T10:14:59.227Z,2.65
2023-04-07T10:16:05.321Z,2.62
2023-04-07T10:17:10.046Z,2.60
2023-04-07T10:18:18.468Z,2.56
2023-04-07T10:19:21.326Z,2.50
2023-04-07T10:20:25.412Z,2.46
2023-04-07T10:21:27.827Z,2.44
2023-04-07T10:22:31.337Z,2.40
2023-04-07T10:23:53.223Z,2.37
2023-04-07T10:24:58.862Z,2.33
2023-04-07T10:26:04.372Z,2.33
2023-04-07T10:27:12.609Z,2.33
2023-04-07T10:28:16.454Z,2.35
2023-04-07T10:29:20.715Z,2.37
2023-04-07T10:30:31.288Z,2.43
2023-04-07T10:31:36.989Z,2.46
2023-04-07T10:32:46.875Z,2.50
2023-04-07T10:33:54.106Z,2.54
2023-04-07T10:34:58.182Z,2.57
2023-04-07T10:36:06.160Z,2.59
2023-04-07T10:37:11.755Z,2.60
2023-04-07T10:38:16.594Z,2.65
2023-04-07T10:39:24.180Z,2.69
2023-04-07T10:40:29.549Z,2.73
2023-04-07T10:41:36.883Z,2.74
2023-04-07T10:42:45.596Z,2.78
2023-04-07T10:43:50.951Z,2.77
2023-04-07T10:44:53.125Z,2.79
2023-04-07T10:46:02.845Z,2.82
2023-04-07T10:47:09.337Z,2.83
2023-04-07T10:48:14.110Z,2.86
2023-04-07T10:49:20.892Z,2.86
2023-04-07T10:50:24.256Z,2.85
2023-04-07T10:51:27.496Z,2.83
2023-04-07T10:52:29.843Z,2.82
2023-04-07T10:53:33.981Z,2.85
2023-04-07T10:54:36.339Z,2.91
2023-04-07T10:55:40.801Z,2.96
2023-04-07T10:57:04.989Z,3.01
2023-04-07T10:58:31.838Z,3.04
2023-04-07T10:59:40.005Z,3.04
2023-04-07T11:00:43.484Z,3.06
2023-04-07T11:01:46.593Z,3.07
2023-04-07T11:02:50.635Z,3.11
2023-04-07T11:03:59.649Z,3.14
2023-04-07T11:05:03.063Z,3.13
2023-04-07T11:06:08.295Z,3.16
2023-04-07T11:07:14.861Z,3.18
2023-04-07T11:08:33.724Z,3.23
2023-04-07T11:09:42.302Z,3.21
2023-04-07T11:11:02.406Z,3.22
2023-04-07T11:12:06.346Z,3.21
2023-04-07T11:13:09.231Z,3.22
2023-04-07T11:14:12.312Z,3.21
2023-04-07T11:15:19.053Z,3.20
2023-04-07T11:16:36.809Z,3.23
2023-04-07T11:17:39.986Z,3.26
2023-04-07T11:18:46.025Z,3.31
2023-04-07T11:19:53.727Z,3.35
2023-04-07T11:20:58.635Z,3.39
2023-04-07T11:23:27.487Z,3.47
2023-04-07T11:24:32.910Z,3.50
2023-04-07T11:25:36.681Z,3.55
2023-04-07T11:26:41.692Z,3.54
2023-04-07T11:27:45.386Z,3.55
2023-04-07T11:28:49.295Z,3.55
2023-04-07T11:29:51.968Z,3.55
2023-04-07T11:30:56.562Z,3.55
2023-04-07T11:32:03.349Z,3.54
2023-04-07T11:33:06.759Z,3.56
2023-04-07T11:34:12.822Z,3.57
2023-04-07T11:35:16.291Z,3.54
2023-04-07T11:36:28.511Z,3.49
2023-04-07T11:37:31.709Z,3.43
2023-04-07T11:38:38.805Z,3.39
2023-04-07T11:39:43.614Z,3.35
2023-04-07T11:40:47.171Z,3.36
2023-04-07T11:41:51.359Z,3.38
2023-04-07T11:42:53.737Z,3.41
2023-04-07T11:44:07.297Z,3.44
2023-04-07T11:45:17.082Z,3.44
2023-04-07T11:46:22.667Z,3.43
2023-04-07T11:47:34.534Z,3.46
2023-04-07T11:48:39.470Z,3.49
2023-04-07T11:49:49.271Z,3.50
2023-04-07T11:50:51.802Z,3.51
2023-04-07T11:52:03.644Z,3.48
2023-04-07T11:53:06.076Z,3.43
2023-04-07T11:54:10.130Z,3.39
2023-04-07T11:55:23.182Z,3.36
2023-04-07T11:56:28.246Z,3.32
2023-04-07T11:57:31.612Z,3.29
2023-04-07T11:58:35.166Z,3.27
2023-04-07T11:59:37.892Z,3.24
2023-04-07T12:01:02.157Z,3.22
2023-04-07T12:02:09.884Z,3.20
2023-04-07T12:03:14.720Z,3.21
2023-04-07T12:04:18.875Z,3.25
2023-04-07T12:05:33.503Z,3.27
2023-04-07T12:06:38.993Z,3.30
2023-04-07T12:07:53.259Z,3.34
2023-04-07T12:08:56.884Z,3.35
2023-04-07T12:09:59.225Z,3.38
2023-04-07T12:11:05.158Z,3.39
2023-04-07T12:12:11.967Z,3.42
2023-04-07T12:13:14.634Z,3.44
2023-04-07T12:14:17.832Z,3.48
2023-04-07T12:15:20.674Z,3.54
2023-04-07T12:16:24.311Z,3.56
2023-04-07T12:18:03.169Z,3.57
2023-04-07T12:19:07.788Z,3.54
2023-04-07T12:20:11.938Z,3.57
2023-04-07T12:21:15.960Z,3.59
2023-04-07T12:22:21.033Z,3.58
2023-04-07T12:23:27.786Z,3.57
2023-04-07T12:24:32.342Z,3.55
2023-04-07T12:25:36.534Z,3.55
2023-04-07T12:26:39.054Z,3.52
2023-04-07T12:27:43.787Z,3.53
2023-04-07T12:29:07.238Z,3.51
2023-04-07T12:30:10.077Z,3.53
2023-04-07T12:31:13.895Z,3.56
2023-04-07T12:32:39.386Z,3.60
2023-04-07T12:33:42.910Z,3.62
2023-04-07T12:34:45.496Z,3.64
2023-04-07T12:35:49.424Z,3.66
2023-04-07T12:36:54.261Z,3.69
2023-04-07T12:37:56.990Z,3.74
2023-04-07T12:39:00.895Z,3.80
2023-04-07T12:40:03.107Z,3.83
2023-04-07T12:41:06.519Z,3.84
2023-04-07T12:42:12.033Z,3.81
2023-04-07T12:43:15.753Z,3.77
2023-04-07T12:44:18.013Z,3.75
2023-04-07T12:45:21.440Z,3.76
2023-04-07T12:46:24.960Z,3.75
2023-04-07T12:47:27.499Z,3.75
2023-04-07T12:48:36.032Z,3.74
2023-04-07T12:49:39.502Z,3.75
2023-04-07T12:50:43.141Z,3.72
2023-04-07T12:51:48.999Z,3.68
2023-04-07T12:52:53.658Z,3.66
2023-04-07T12:53:56.800Z,3.65
2023-04-07T12:55:02.051Z,3.65
2023-04-07T12:56:05.577Z,3.66
2023-04-07T12:57:07.962Z,3.70
2023-04-07T12:58:11.380Z,3.73
2023-04-07T12:59:14.725Z,3.73
2023-04-07T13:00:17.561Z,3.74
2023-04-07T13:01:21.628Z,3.71
2023-04-07T13:02:24.805Z,3.67
2023-04-07T13:03:28.923Z,3.66
2023-04-07T13:04:32.699Z,3.66
2023-04-07T13:05:35.714Z,3.64
2023-04-07T13:06:54.378Z,3.63
2023-04-07T13:08:01.392Z,3.62
2023-04-07T13:09:03.864Z,3.62
2023-04-07T13:10:09.348Z,3.65
2023-04-07T13:11:12.872Z,3.66
2023-04-07T13:12:15.664Z,3.67
2023-04-07T13:13:19.185Z,3.68
2023-04-07T13:14:23.301Z,3.69
2023-04-07T13:15:55.025Z,3.69
2023-04-07T13:16:57.464Z,3.71
2023-04-07T13:19:43.504Z,3.71
2023-04-07T13:20:55.188Z,3.70
2023-04-07T13:22:08.382Z,3.67
2023-04-07T13:23:19.029Z,3.66
2023-04-07T13:24:22.009Z,3.66
2023-04-07T13:25:25.483Z,3.64
2023-04-07T13:26:28.313Z,3.65
2023-04-07T13:27:35.729Z,3.66
2023-04-07T13:28:41.177Z,3.64
2023-04-07T13:29:44.372Z,3.62
2023-04-07T13:30:48.812Z,3.60
2023-04-07T13:31:52.299Z,3.60
2023-04-07T13:32:55.826Z,3.60
2023-04-07T13:34:01.113Z,3.59
2023-04-07T13:35:04.482Z,3.58
2023-04-07T13:36:06.852Z,3.61
2023-04-07T13:37:23.171Z,3.62
2023-04-07T13:38:27.369Z,3.64
2023-04-07T13:39:34.006Z,3.67
2023-04-07T13:40:37.433Z,3.71
2023-04-07T13:41:39.879Z,3.78
2023-04-07T13:42:44.789Z,3.83
2023-04-07T13:43:49.127Z,3.88
2023-04-07T13:44:55.253Z,3.92
2023-04-07T13:45:57.888Z,3.95
2023-04-07T13:47:01.715Z,4.00
2023-04-07T13:48:04.433Z,4.04
2023-04-07T13:49:11.894Z,4.03
2023-04-07T13:50:14.571Z,4.02
2023-04-07T13:51:18.176Z,4.04
2023-04-07T13:52:21.822Z,4.04
2023-04-07T13:53:45.320Z,4.02
2023-04-07T13:54:50.081Z,3.95
2023-04-07T13:56:03.981Z,3.93
2023-04-07T13:57:08.437Z,3.90
2023-04-07T13:58:10.684Z,3.89
2023-04-07T13:59:14.105Z,3.88
2023-04-07T14:00:18.632Z,3.85
2023-04-07T14:01:21.492Z,3.82
2023-04-07T14:02:26.139Z,3.76
2023-04-07T14:03:28.923Z,3.73
2023-04-07T14:04:32.550Z,3.69
2023-04-07T14:05:35.775Z,3.67
2023-04-07T14:06:39.557Z,3.67
2023-04-07T14:07:41.675Z,3.65
2023-04-07T14:08:44.891Z,3.64
2023-04-07T14:09:59.123Z,3.65
2023-04-07T14:11:03.924Z,3.61
2023-04-07T14:12:07.029Z,3.59
2023-04-07T14:13:11.012Z,3.56
2023-04-07T14:14:13.744Z,3.54
2023-04-07T14:15:18.340Z,3.54
2023-04-07T14:16:22.883Z,3.56
2023-04-07T14:17:26.596Z,3.57
2023-04-07T14:18:29.745Z,3.55
2023-04-07T14:19:35.025Z,3.57
2023-04-07T14:20:39.601Z,3.60
2023-04-07T14:21:43.373Z,3.59
2023-04-07T14:22:47.081Z,3.59
2023-04-07T14:23:50.179Z,3.61
2023-04-07T14:24:55.184Z,3.63
2023-04-07T14:26:02.002Z,3.67
2023-04-07T14:27:05.522Z,3.68
2023-04-07T14:28:11.705Z,3.69
2023-04-07T14:29:17.072Z,3.71
2023-04-07T14:30:20.565Z,3.70
2023-04-07T14:31:23.868Z,3.70
2023-04-07T14:32:32.918Z,3.71
2023-04-07T14:33:38.490Z,3.73
2023-04-07T14:34:42.120Z,3.72
2023-04-07T14:35:44.714Z,3.73